createdAt,value
2023-04-09T00:01:12.526Z,8.95
2023-04-09T00:04:15.617Z,8.82
2023-04-09T00:07:18.150Z,9.17
2023-04-09T00:10:21.089Z,8.25
2023-04-09T00:13:31.886Z,9.88
2023-04-09T00:16:41.818Z,9.55
2023-04-09T00:19:44.796Z,8.68
2023-04-09T00:22:48.568Z,7.97
2023-04-09T00:25:51.132Z,8.80
2023-04-09T00:28:55.826Z,9.75
2023-04-09T00:31:59.289Z,10.50
2023-04-09T00:35:02.156Z,10.20
2023-04-09T00:38:04.647Z,9.33
2023-04-09T00:41:07.411Z,10.18
2023-04-09T00:44:09.903Z,10.35
2023-04-09T00:47:12.793Z,8.90
2023-04-09T00:50:17.028Z,8.77
2023-04-09T00:53:20.263Z,8.30
2023-04-09T00:56:23.711Z,10.02
2023-04-09T00:59:26.882Z,10.98
2023-04-09T01:02:30.959Z,10.27
2023-04-09T01:06:04.644Z,10.50
2023-04-09T01:09:36.772Z,8.37
2023-04-09T01:12:55.443Z,9.43
2023-04-09T01:16:00.952Z,9.45
2023-04-09T01:19:11.300Z,10.07
2023-04-09T01:22:31.735Z,9.98
2023-04-09T01:25:44.554Z,10.30
2023-04-09T01:28:54.136Z,9.27
2023-04-09T01:32:00.989Z,10.93
2023-04-09T01:35:04.728Z,9.85
2023-04-09T01:38:08.210Z,10.55
2023-04-09T01:41:18.681Z,10.87
2023-04-09T01:44:21.828Z,11.77
2023-04-09T01:47:24.489Z,12.00
2023-04-09T01:50:28.109Z,11.25
2023-04-09T01:53:31.225Z,11.23
2023-04-09T01:56:44.942Z,11.57
2023-04-09T01:59:47.411Z,11.02
2023-04-09T02:03:04.808Z,10.57
2023-04-09T02:06:15.600Z,10.48
2023-04-09T02:09:20.733Z,11.45
2023-04-09T02:12:24.368Z,9.80
2023-04-09T02:15:28.617Z,11.98
2023-04-09T02:18:32.564Z,12.35
2023-04-09T02:21:35.873Z,11.80
2023-04-09T02:24:39.009Z,12.70
2023-04-09T02:27:41.546Z,12.83
2023-04-09T02:30:44.391Z,11.60
2023-04-09T02:36:52.127Z,12.43
2023-04-09T02:42:58.421Z,11.13
2023-04-09T02:46:00.959Z,11.68
2023-04-09T02:49:03.872Z,12.27
2023-04-09T02:52:06.439Z,10.88
2023-04-09T02:55:09.345Z,13.50
2023-04-09T02:58:11.872Z,11.17
2023-04-09T03:01:14.728Z,12.60
2023-04-09T03:04:19.177Z,11.95
2023-04-09T03:07:22.711Z,11.05
2023-04-09T03:10:25.334Z,10.82
2023-04-09T03:13:28.472Z,11.77
2023-04-09T03:16:30.992Z,11.35
2023-04-09T03:19:33.735Z,11.68
2023-04-09T03:22:40.045Z,11.90
2023-04-09T03:25:43.957Z,12.13
2023-04-09T03:28:47.110Z,12.43
2023-04-09T03:31:49.962Z,12.35
2023-04-09T03:34:53.126Z,11.25
2023-04-09T03:37:56.415Z,12.60
2023-04-09T03:40:58.918Z,12.15
2023-04-09T03:44:02.253Z,12.30
2023-04-09T03:47:05.493Z,11.38
2023-04-09T03:50:10.697Z,11.65
2023-04-09T03:53:17.013Z,12.10
2023-04-09T03:56:20.627Z,11.12
2023-04-09T03:59:24.253Z,11.70
2023-04-09T04:02:30.511Z,11.38
2023-04-09T04:05:34.286Z,11.45
2023-04-09T04:08:38.706Z,11.55
2023-04-09T04:11:41.592Z,11.27
2023-04-09T04:14:44.092Z,10.73
2023-04-09T04:17:50.893Z,10.95
2023-04-09T04:20:53.816Z,11.55
2023-04-09T04:23:57.059Z,11.45
2023-04-09T04:26:59.717Z,11.40
2023-04-09T04:30:07.084Z,11.30
2023-04-09T04:33:10.774Z,11.70
2023-04-09T04:36:14.681Z,12.15
2023-04-09T04:42:38.288Z,13.32
2023-04-09T04:45:44.467Z,11.00
2023-04-09T04:48:47.781Z,8.80
2023-04-09T04:51:50.617Z,7.82
2023-04-09T04:54:53.408Z,8.40
2023-04-09T04:57:56.301Z,12.30
2023-04-09T05:01:01.797Z,10.60
2023-04-09T05:04:05.670Z,11.95
2023-04-09T05:10:16.334Z,10.73
2023-04-09T05:13:19.620Z,12.02
2023-04-09T05:16:23.143Z,12.90
2023-04-09T05:19:26.832Z,11.43
2023-04-09T05:22:30.725Z,13.27
2023-04-09T05:25:34.045Z,11.80
2023-04-09T05:28:38.040Z,13.00
2023-04-09T05:31:43.111Z,12.33
2023-04-09T05:34:47.021Z,11.35
2023-04-09T05:37:51.187Z,13.82
2023-04-09T05:40:54.233Z,14.15
2023-04-09T05:43:57.895Z,12.35
2023-04-09T05:47:02.720Z,12.83
2023-04-09T05:50:06.661Z,12.32
2023-04-09T05:53:10.094Z,11.00
2023-04-09T05:56:15.548Z,10.23
2023-04-09T05:59:23.128Z,9.73
2023-04-09T06:02:26.685Z,13.10
2023-04-09T06:05:29.885Z,13.30
2023-04-09T06:08:33.259Z,13.07
2023-04-09T06:11:38.409Z,11.30
2023-04-09T06:14:40.985Z,11.18
2023-04-09T06:17:43.871Z,13.07
2023-04-09T06:20:47.286Z,12.35
2023-04-09T06:23:51.832Z,12.55
2023-04-09T06:26:54.491Z,11.82
2023-04-09T06:29:57.268Z,13.23
2023-04-09T06:32:59.812Z,11.97
2023-04-09T06:36:03.072Z,12.65
2023-04-09T06:39:06.132Z,15.05
2023-04-09T06:42:08.961Z,13.32
2023-04-09T06:45:12.352Z,14.75
2023-04-09T06:48:16.892Z,14.30
2023-04-09T06:51:19.444Z,13.48
2023-04-09T06:54:22.351Z,13.48
2023-04-09T06:57:25.606Z,12.32
2023-04-09T07:00:28.537Z,13.60
2023-04-09T07:03:31.269Z,11.50
2023-04-09T07:06:34.313Z,14.15
2023-04-09T07:09:36.963Z,14.20
2023-04-09T07:12:39.721Z,15.40
2023-04-09T07:15:42.666Z,12.40
2023-04-09T07:18:45.950Z,13.17
2023-04-09T07:21:48.460Z,13.05
2023-04-09T07:24:54.971Z,13.85
2023-04-09T07:31:03.102Z,12.77
2023-04-09T07:34:05.817Z,13.87
2023-04-09T07:37:08.594Z,14.48
2023-04-09T07:40:11.664Z,12.52
2023-04-09T07:43:14.569Z,11.93
2023-04-09T07:46:21.862Z,11.68
2023-04-09T07:49:24.856Z,12.67
2023-04-09T07:52:27.479Z,13.30
2023-04-09T07:55:30.722Z,13.25
2023-04-09T07:58:33.325Z,13.20
2023-04-09T08:01:36.531Z,12.37
2023-04-09T08:04:40.978Z,12.60
2023-04-09T08:07:43.564Z,14.38
2023-04-09T08:10:46.606Z,14.80
2023-04-09T08:13:49.050Z,13.52
2023-04-09T08:16:51.889Z,14.45
2023-04-09T08:19:54.524Z,13.07
2023-04-09T08:22:57.647Z,13.20
2023-04-09T08:26:00.307Z,13.23
2023-04-09T08:29:03.139Z,13.48
2023-04-09T08:32:06.279Z,12.25
2023-04-09T08:35:09.743Z,14.93
2023-04-09T08:38:12.281Z,14.75
2023-04-09T08:41:18.973Z,13.48
2023-04-09T08:44:22.110Z,12.95
2023-04-09T08:47:25.521Z,12.82
2023-04-09T08:50:28.148Z,11.90
2023-04-09T08:53:31.320Z,11.60
2023-04-09T08:56:33.909Z,11.68
2023-04-09T08:59:37.857Z,11.75
2023-04-09T09:03:04.484Z,12.23
2023-04-09T09:06:21.905Z,13.00
2023-04-09T09:09:24.900Z,11.32
2023-04-09T09:12:32.091Z,13.80
2023-04-09T09:15:34.834Z,12.30
2023-04-09T09:18:42.355Z,15.05
2023-04-09T09:21:57.933Z,11.80
2023-04-09T09:25:01.038Z,11.68
2023-04-09T09:28:08.992Z,10.77
2023-04-09T09:31:12.878Z,10.93
2023-04-09T09:34:17.316Z,11.43
2023-04-09T09:37:28.157Z,9.17
2023-04-09T09:40:30.742Z,11.38
2023-04-09T09:43:42.727Z,10.20
2023-04-09T09:46:45.464Z,9.05
2023-04-09T09:49:50.316Z,10.43
2023-04-09T09:53:07.086Z,10.20
2023-04-09T09:56:19.439Z,8.90
2023-04-09T09:59:23.916Z,9.75
2023-04-09T10:02:30.977Z,9.05
2023-04-09T10:05:36.236Z,9.93
2023-04-09T10:08:41.717Z,9.07
2023-04-09T10:11:47.926Z,10.85
2023-04-09T10:14:53.181Z,9.57
2023-04-09T10:17:56.276Z,8.65
2023-04-09T10:21:07.969Z,9.23
2023-04-09T10:24:11.258Z,8.50
2023-04-09T10:27:16.807Z,7.85
2023-04-09T10:30:35.050Z,11.38
2023-04-09T10:33:38.615Z,7.57
2023-04-09T10:36:44.578Z,11.20
2023-04-09T10:39:48.230Z,8.83
2023-04-09T10:42:51.663Z,7.90
2023-04-09T10:45:57.920Z,7.87
2023-04-09T10:49:11.784Z,7.80
2023-04-09T10:52:16.247Z,7.97
2023-04-09T10:55:38.703Z,7.03
2023-04-09T10:58:41.242Z,7.37
2023-04-09T11:01:53.580Z,8.57
2023-04-09T11:05:02.383Z,7.37
2023-04-09T11:08:09.989Z,7.75
2023-04-09T11:11:13.366Z,4.47
2023-04-09T11:14:20.522Z,6.47
2023-04-09T11:17:23.161Z,7.03
2023-04-09T11:20:26.932Z,6.95
2023-04-09T11:23:29.838Z,6.75
2023-04-09T11:26:36.751Z,7.47
2023-04-09T11:29:39.286Z,7.70
2023-04-09T11:32:42.509Z,5.45
2023-04-09T11:35:45.329Z,7.37
2023-04-09T11:38:49.392Z,7.45
2023-04-09T11:41:52.136Z,7.30
2023-04-09T11:44:55.062Z,7.55
2023-04-09T11:47:57.837Z,8.23
2023-04-09T11:51:01.620Z,9.35
2023-04-09T11:54:05.958Z,9.60
2023-04-09T11:57:08.890Z,10.23
2023-04-09T12:00:14.269Z,8.73
2023-04-09T12:03:17.340Z,8.38
2023-04-09T12:06:24.832Z,8.43
2023-04-09T12:09:27.795Z,13.62
2023-04-09T12:12:30.769Z,9.90
2023-04-09T12:15:37.870Z,8.93
2023-04-09T12:18:41.135Z,9.07
2023-04-09T12:21:53.060Z,8.00
2023-04-09T12:24:55.616Z,8.85
2023-04-09T12:27:58.793Z,7.90
2023-04-09T12:31:02.805Z,8.45
2023-04-09T12:34:05.719Z,9.15
2023-04-09T12:37:08.309Z,9.20
2023-04-09T12:40:13.893Z,8.15
2023-04-09T12:43:16.650Z,8.00
2023-04-09T12:46:19.757Z,8.80
2023-04-09T12:49:22.309Z,9.00
2023-04-09T12:52:25.302Z,11.30
2023-04-09T12:55:28.075Z,8.77
2023-04-09T12:58:31.424Z,8.17
2023-04-09T13:01:33.990Z,8.82
2023-04-09T13:04:37.212Z,7.85
2023-04-09T13:07:42.179Z,8.23
2023-04-09T13:10:45.816Z,8.02
2023-04-09T13:13:48.355Z,12.63
2023-04-09T13:16:52.760Z,13.40
2023-04-09T13:19:55.575Z,15.45
2023-04-09T13:22:58.579Z,12.40
2023-04-09T13:26:01.386Z,5.40
2023-04-09T13:29:04.393Z,5.40
2023-04-09T13:32:07.658Z,5.60
2023-04-09T13:35:11.452Z,4.80
2023-04-09T13:38:13.982Z,5.50
2023-04-09T13:41:16.861Z,4.20
2023-04-09T13:44:19.316Z,4.60
2023-04-09T13:47:23.953Z,5.68
2023-04-09T13:50:27.040Z,4.87
2023-04-09T13:53:29.790Z,4.35
2023-04-09T13:56:32.322Z,5.00
2023-04-09T13:59:35.067Z,5.82
2023-04-09T14:02:37.815Z,5.20
2023-04-09T14:05:41.058Z,7.35
2023-04-09T14:08:43.899Z,23.77
2023-04-09T14:11:46.659Z,14.37
2023-04-09T14:14:50.006Z,5.87
2023-04-09T14:17:52.741Z,5.35
2023-04-09T14:20:55.446Z,4.95
2023-04-09T14:23:58.245Z,4.10
2023-04-09T14:27:02.863Z,4.90
2023-04-09T14:30:07.715Z,4.07
2023-04-09T14:33:11.338Z,5.00
2023-04-09T14:36:14.129Z,5.65
2023-04-09T14:39:16.698Z,5.90
2023-04-09T14:42:19.621Z,7.30
2023-04-09T14:45:22.164Z,6.55
2023-04-09T14:48:25.018Z,4.78
2023-04-09T14:51:30.626Z,4.72
2023-04-09T14:54:34.159Z,5.72
2023-04-09T14:57:36.729Z,5.67
2023-04-09T15:00:39.516Z,5.47
2023-04-09T15:03:42.451Z,4.00
2023-04-09T15:06:45.607Z,5.30
2023-04-09T15:09:48.359Z,5.72
2023-04-09T15:12:51.275Z,6.40
2023-04-09T15:15:53.761Z,5.70
2023-04-09T15:18:58.872Z,5.82
2023-04-09T15:22:01.473Z,4.55
2023-04-09T15:25:04.816Z,6.18
2023-04-09T15:28:07.271Z,7.13
2023-04-09T15:31:10.315Z,7.05
2023-04-09T15:34:13.031Z,6.62
2023-04-09T15:37:16.004Z,6.87
2023-04-09T15:40:18.784Z,7.05
2023-04-09T15:43:24.036Z,6.20
2023-04-09T15:46:26.524Z,6.37
2023-04-09T15:49:29.253Z,6.22
2023-04-09T15:52:32.223Z,6.18
2023-04-09T15:55:34.979Z,5.28
2023-04-09T15:58:37.637Z,4.70
2023-04-09T16:01:40.410Z,5.53
2023-04-09T16:04:43.301Z,5.07
2023-04-09T16:07:45.852Z,5.60
2023-04-09T16:10:48.676Z,5.97
2023-04-09T16:13:51.373Z,6.03
2023-04-09T16:16:54.210Z,5.72
2023-04-09T16:19:56.893Z,6.80
2023-04-09T16:22:59.917Z,5.95
2023-04-09T16:26:02.434Z,6.05
2023-04-09T16:29:05.397Z,4.90
2023-04-09T16:32:08.286Z,5.32
2023-04-09T16:35:11.313Z,6.47
2023-04-09T16:38:13.778Z,17.70
2023-04-09T16:41:16.708Z,7.95
2023-04-09T16:44:19.280Z,5.97
2023-04-09T16:47:22.195Z,6.50
2023-04-09T16:50:25.339Z,7.97
2023-04-09T16:53:28.428Z,7.28
2023-04-09T16:56:31.015Z,6.40
2023-04-09T16:59:33.870Z,7.60
2023-04-09T17:02:37.862Z,9.15
2023-04-09T17:05:40.933Z,9.00
2023-04-09T17:08:45.078Z,12.60
2023-04-09T17:11:47.946Z,14.55
2023-04-09T17:14:50.513Z,12.07
2023-04-09T17:17:53.785Z,11.10
2023-04-09T17:20:56.550Z,11.27
2023-04-09T17:24:01.831Z,16.00
2023-04-09T17:27:07.509Z,15.95
2023-04-09T17:30:10.668Z,14.37
2023-04-09T17:33:13.411Z,18.12
2023-04-09T17:36:20.353Z,17.73
2023-04-09T17:39:26.749Z,14.52
2023-04-09T17:42:30.128Z,14.63
2023-04-09T17:45:32.583Z,21.63
2023-04-09T17:48:38.737Z,18.55
2023-04-09T17:51:41.638Z,16.33
2023-04-09T17:54:45.514Z,16.42
2023-04-09T17:57:48.175Z,20.95
2023-04-09T18:00:52.930Z,19.23
2023-04-09T18:03:56.245Z,17.33
2023-04-09T18:06:58.906Z,17.33
2023-04-09T18:10:02.631Z,18.70
2023-04-09T18:13:05.185Z,20.35
2023-04-09T18:16:12.358Z,20.10
2023-04-09T18:19:15.463Z,25.70
2023-04-09T18:22:18.321Z,22.83
2023-04-09T18:25:22.301Z,15.80
2023-04-09T18:28:25.540Z,12.15
2023-04-09T18:31:28.439Z,10.93
2023-04-09T18:34:31.841Z,11.48
2023-04-09T18:37:34.701Z,17.55
2023-04-09T18:40:42.643Z,22.00
2023-04-09T18:43:45.822Z,15.90
2023-04-09T18:46:48.782Z,14.07
2023-04-09T18:49:51.604Z,14.52
2023-04-09T18:52:54.564Z,16.62
2023-04-09T18:55:57.466Z,13.90
2023-04-09T18:59:00.607Z,12.00
2023-04-09T19:02:06.479Z,16.40
2023-04-09T19:05:11.117Z,17.75
2023-04-09T19:08:14.216Z,13.73
2023-04-09T19:11:17.880Z,17.87
2023-04-09T19:14:20.678Z,15.25
2023-04-09T19:17:23.542Z,12.33
2023-04-09T19:20:26.329Z,15.48
2023-04-09T19:23:30.013Z,11.18
2023-04-09T19:26:32.611Z,11.90
2023-04-09T19:29:36.591Z,16.37
2023-04-09T19:32:39.925Z,15.23
2023-04-09T19:35:42.911Z,13.80
2023-04-09T19:38:45.650Z,16.33
2023-04-09T19:41:48.432Z,17.45
2023-04-09T19:44:51.051Z,16.45
2023-04-09T19:47:55.661Z,16.70
2023-04-09T19:50:58.545Z,14.10
2023-04-09T19:54:01.376Z,14.20
2023-04-09T19:57:04.323Z,11.00
2023-04-09T20:00:08.765Z,7.87
2023-04-09T20:03:14.069Z,11.37
2023-04-09T20:06:17.156Z,12.68
2023-04-09T20:09:20.911Z,11.85
2023-04-09T20:12:28.257Z,12.02
2023-04-09T20:15:31.041Z,11.93
2023-04-09T20:18:33.843Z,8.87
2023-04-09T20:21:37.271Z,8.65
2023-04-09T20:24:40.999Z,9.57
2023-04-09T20:27:43.623Z,12.07
2023-04-09T20:30:46.929Z,11.35
2023-04-09T20:33:49.464Z,11.73
2023-04-09T20:36:53.681Z,11.85
2023-04-09T20:39:58.501Z,10.73
2023-04-09T20:43:01.456Z,11.63
2023-04-09T20:46:05.230Z,11.18
2023-04-09T20:49:08.151Z,9.10
2023-04-09T20:52:10.703Z,11.52
2023-04-09T20:55:13.506Z,10.32
2023-04-09T20:58:16.237Z,10.60
2023-04-09T21:01:19.276Z,9.30
2023-04-09T21:04:22.248Z,12.27
2023-04-09T21:07:25.204Z,12.57
2023-04-09T21:10:27.941Z,12.10
2023-04-09T21:13:33.714Z,10.52
2023-04-09T21:16:40.518Z,13.38
2023-04-09T21:19:43.430Z,13.80
2023-04-09T21:22:45.935Z,14.05
2023-04-09T21:25:48.782Z,13.00
2023-04-09T21:28:52.080Z,14.00
2023-04-09T21:31:55.333Z,13.62
2023-04-09T21:34:57.892Z,12.57
2023-04-09T21:38:02.790Z,12.37
2023-04-09T21:41:05.364Z,9.02
2023-04-09T21:44:08.594Z,9.30
2023-04-09T21:47:12.337Z,8.55
2023-04-09T21:50:15.606Z,6.00
2023-04-09T21:53:18.454Z,6.70
2023-04-09T21:56:21.199Z,6.78
2023-04-09T21:59:23.938Z,6.22
2023-04-09T22:02:28.148Z,7.75
2023-04-09T22:05:32.964Z,6.70
2023-04-09T22:08:40.492Z,4.95
2023-04-09T22:11:52.987Z,9.07
2023-04-09T22:14:56.210Z,13.68
2023-04-09T22:17:59.018Z,13.05
2023-04-09T22:21:01.590Z,13.23
2023-04-09T22:24:04.388Z,11.32
2023-04-09T22:27:07.048Z,8.25
2023-04-09T22:30:09.956Z,9.60
2023-04-09T22:33:12.471Z,9.07
2023-04-09T22:36:15.634Z,5.57
2023-04-09T22:39:18.124Z,7.50
2023-04-09T22:42:21.006Z,7.93
2023-04-09T22:45:27.772Z,9.60
2023-04-09T22:48:30.936Z,6.93
2023-04-09T22:51:36.484Z,9.30
2023-04-09T22:54:39.480Z,9.85
2023-04-09T22:57:43.071Z,10.20
2023-04-09T23:00:47.360Z,10.98
2023-04-09T23:03:50.448Z,10.45
2023-04-09T23:06:53.417Z,11.03
2023-04-09T23:09:56.275Z,8.27
2023-04-09T23:12:59.381Z,9.70
2023-04-09T23:16:05.994Z,8.77
2023-04-09T23:19:08.820Z,5.68
2023-04-09T23:22:11.324Z,4.50
2023-04-09T23:25:15.461Z,3.87
2023-04-09T23:28:17.982Z,8.63
2023-04-09T23:31:21.011Z,5.35
2023-04-09T23:34:23.632Z,9.35
2023-04-09T23:37:27.343Z,9.23
2023-04-09T23:40:29.945Z,7.85
2023-04-09T23:43:32.740Z,10.35
2023-04-09T23:46:35.651Z,9.90
2023-04-09T23:49:38.602Z,6.18
2023-04-09T23:52:46.599Z,7.57
2023-04-09T23:55:50.195Z,6.53
2023-04-09T23:58:52.635Z,8.00
